Time;durP1;ratioP1;P1;durP2;ratioP2;P2;SDS_P1;SDS_P2;PMS_P1;PMS_P2;Temp;Humidity;BMP_temperature;BMP_pressure;BME280_temperature;BME280_humidity;BME280_pressure;Samples;Min_cycle;Max_cycle;Signal;HPM_P1;HPM_P2
2022/06/09 00:00:03;;;;;;;71.00;24.13;;;15.40;99.90;;;;;;4940554;29;20441;-85
2022/06/09 00:02:30;;;;;;;72.50;23.20;;;15.40;99.90;;;;;;4922797;29;20917;-85
2022/06/09 00:04:57;;;;;;;70.73;28.33;;;15.40;99.90;;;;;;4939845;29;20447;-84
2022/06/09 00:07:24;;;;;;;75.20;24.67;;;15.40;99.90;;;;;;4923019;29;20414;-85
2022/06/09 00:10:01;;;;;;;70.77;20.07;;;15.30;99.90;;;;;;4940365;29;20452;-85
2022/06/09 00:12:27;;;;;;;73.57;21.60;;;15.30;99.90;;;;;;4939696;29;20399;-85
2022/06/09 00:14:56;;;;;;;71.37;22.80;;;15.30;99.90;;;;;;4939765;29;20481;-84
2022/06/09 00:17:25;;;;;;;68.77;20.67;;;15.30;99.90;;;;;;4924454;29;20499;-85
2022/06/09 00:19:51;;;;;;;69.67;20.53;;;15.40;99.90;;;;;;4942161;29;20484;-85
2022/06/09 00:22:17;;;;;;;70.30;22.80;;;15.40;99.90;;;;;;4942725;29;20737;-85
2022/06/09 00:24:43;;;;;;;69.97;22.67;;;15.30;99.90;;;;;;4942798;29;20425;-85
2022/06/09 00:27:12;;;;;;;71.07;24.07;;;15.30;99.90;;;;;;4925927;29;20470;-85
2022/06/09 00:29:38;;;;;;;75.30;26.90;;;15.30;99.90;;;;;;4924383;29;20416;-85
2022/06/09 00:32:04;;;;;;;69.13;25.20;;;15.20;99.90;;;;;;4941449;29;20434;-86
2022/06/09 00:34:30;;;;;;;68.77;21.33;;;15.30;99.90;;;;;;4941021;29;20173;-85
2022/06/09 00:36:56;;;;;;;70.83;23.97;;;15.30;99.90;;;;;;4923112;29;20949;-85
2022/06/09 00:39:21;;;;;;;72.63;24.63;;;15.30;99.90;;;;;;4923110;29;20456;-85
2022/06/09 00:41:47;;;;;;;72.13;29.77;;;15.20;99.90;;;;;;4940010;29;20226;-85
2022/06/09 00:44:15;;;;;;;74.10;26.43;;;15.20;99.90;;;;;;4939605;29;20170;-85
2022/06/09 00:46:42;;;;;;;72.77;23.77;;;15.10;99.90;;;;;;4923058;29;20276;-85
2022/06/09 00:49:21;;;;;;;70.17;25.10;;;15.00;99.90;;;;;;4922283;29;20935;-85
2022/06/09 00:51:53;;;;;;;72.07;29.43;;;15.00;99.90;;;;;;4939404;29;20385;-85
2022/06/09 00:54:28;;;;;;;69.60;24.60;;;15.00;99.90;;;;;;4922439;29;20754;-85
2022/06/09 00:57:06;;;;;;;68.40;20.63;;;15.00;99.90;;;;;;4938774;29;20427;-85
2022/06/09 00:59:35;;;;;;;70.10;20.77;;;14.90;99.90;;;;;;4921249;29;20542;-86
2022/06/09 01:02:06;;;;;;;71.20;23.60;;;14.90;99.90;;;;;;4921324;29;20414;-85
2022/06/09 01:04:33;;;;;;;69.10;25.83;;;14.90;99.90;;;;;;4938160;29;20386;-85
2022/06/09 01:07:23;;;;;;;69.37;24.30;;;14.90;99.90;;;;;;4938190;29;20513;-85
2022/06/09 01:09:49;;;;;;;69.70;24.13;;;14.90;99.90;;;;;;4921004;29;20985;-85
2022/06/09 01:12:30;;;;;;;72.03;25.50;;;15.00;99.90;;;;;;4921330;29;20451;-85
2022/06/09 01:15:07;;;;;;;69.03;22.23;;;15.00;99.90;;;;;;4937988;29;20509;-85
2022/06/09 01:17:51;;;;;;;69.47;22.63;;;14.90;99.90;;;;;;4938560;29;20414;-85
2022/06/09 01:20:46;;;;;;;73.87;25.97;;;14.90;99.90;;;;;;4922222;29;20451;-85
2022/06/09 01:23:31;;;;;;;71.80;28.67;;;14.80;99.90;;;;;;4938556;29;20382;-85
2022/06/09 01:26:11;;;;;;;71.80;25.27;;;14.90;99.90;;;;;;4920500;29;20452;-85
2022/06/09 01:29:02;;;;;;;78.57;23.37;;;15.00;99.90;;;;;;4938789;29;20394;-85
2022/06/09 01:31:46;;;;;;;72.60;21.97;;;14.90;99.90;;;;;;4937830;29;20377;-85
2022/06/09 01:34:18;;;;;;;71.90;26.57;;;14.80;99.90;;;;;;4921119;29;20408;-85
2022/06/09 01:36:54;;;;;;;71.97;24.37;;;14.90;99.90;;;;;;4938072;29;20428;-85
2022/06/09 01:39:29;;;;;;;69.67;25.77;;;14.80;99.90;;;;;;4921468;29;20868;-85
2022/06/09 01:41:55;;;;;;;74.50;30.40;;;14.80;99.90;;;;;;4920724;29;20405;-85
2022/06/09 01:44:20;;;;;;;73.90;24.50;;;14.80;99.90;;;;;;4938366;29;20407;-85
2022/06/09 01:46:50;;;;;;;73.93;23.30;;;14.70;99.90;;;;;;4939325;29;20585;-85
2022/06/09 01:49:27;;;;;;;69.20;20.80;;;14.80;99.90;;;;;;4921390;29;20177;-85
2022/06/09 01:51:55;;;;;;;70.77;24.97;;;14.80;99.90;;;;;;4938761;29;20394;-85
2022/06/09 01:54:29;;;;;;;72.33;23.57;;;14.80;99.90;;;;;;4922872;29;20425;-85
2022/06/09 01:57:23;;;;;;;70.27;22.90;;;14.80;99.90;;;;;;4922441;29;20443;-85
2022/06/09 01:59:53;;;;;;;76.00;25.67;;;14.70;99.90;;;;;;4933251;29;20457;-85
2022/06/09 02:02:25;;;;;;;71.77;27.40;;;14.70;99.90;;;;;;4938686;29;20392;-85
2022/06/09 02:05:10;;;;;;;73.47;30.03;;;14.70;99.90;;;;;;4921932;29;20912;-85
2022/06/09 02:07:41;;;;;;;71.63;31.07;;;14.70;99.90;;;;;;4939896;29;20903;-85
2022/06/09 02:10:27;;;;;;;74.50;28.27;;;14.70;99.90;;;;;;4940180;29;20423;-85
2022/06/09 02:12:53;;;;;;;74.63;27.83;;;14.70;99.90;;;;;;4940697;29;20875;-85
2022/06/09 02:15:28;;;;;;;77.37;31.83;;;14.80;99.90;;;;;;4939978;29;20428;-85
2022/06/09 02:17:53;;;;;;;72.17;29.43;;;14.70;99.90;;;;;;4940308;29;20864;-85
2022/06/09 02:20:22;;;;;;;71.73;27.37;;;14.70;99.90;;;;;;4922479;29;20541;-85
2022/06/09 02:22:48;;;;;;;77.30;26.13;;;14.80;99.90;;;;;;4940591;29;20512;-85
2022/06/09 02:25:14;;;;;;;70.37;26.07;;;14.80;99.90;;;;;;4939909;29;20468;-85
2022/06/09 02:27:40;;;;;;;73.40;27.20;;;14.90;99.90;;;;;;4941283;29;20169;-85
2022/06/09 02:30:06;;;;;;;79.77;28.23;;;14.80;99.90;;;;;;4940656;29;20415;-85
2022/06/09 02:32:34;;;;;;;72.40;26.97;;;14.80;99.90;;;;;;4939614;29;20207;-85
2022/06/09 02:35:00;;;;;;;81.37;31.87;;;14.80;99.90;;;;;;4938674;29;20908;-85
2022/06/09 02:37:26;;;;;;;74.13;29.90;;;14.80;99.90;;;;;;4939103;29;20404;-85
2022/06/09 02:39:52;;;;;;;72.87;30.57;;;14.80;99.90;;;;;;4939549;29;20771;-85
2022/06/09 02:42:17;;;;;;;75.47;25.87;;;14.80;99.90;;;;;;4921765;29;20166;-85
2022/06/09 02:44:43;;;;;;;78.10;32.43;;;14.80;99.90;;;;;;4938982;29;20164;-85
2022/06/09 02:47:09;;;;;;;75.67;34.67;;;14.80;99.90;;;;;;4921462;29;20197;-85
2022/06/09 02:49:35;;;;;;;78.47;38.23;;;14.80;99.90;;;;;;4938303;29;20168;-85
2022/06/09 02:52:00;;;;;;;74.10;32.10;;;14.80;99.90;;;;;;4939814;29;20165;-85
2022/06/09 02:54:26;;;;;;;75.63;32.87;;;14.80;99.90;;;;;;4939430;29;20248;-85
2022/06/09 02:56:52;;;;;;;77.50;28.43;;;14.80;99.90;;;;;;4938212;29;20193;-86
2022/06/09 02:59:18;;;;;;;77.93;35.10;;;14.80;99.90;;;;;;4939452;29;20255;-86
2022/06/09 03:01:46;;;;;;;84.30;32.23;;;14.80;99.90;;;;;;4939586;29;20186;-85
2022/06/09 03:04:12;;;;;;;82.10;34.23;;;14.80;99.90;;;;;;4939283;29;20935;-86
2022/06/09 03:06:38;;;;;;;81.83;33.17;;;14.80;99.90;;;;;;4939835;29;20424;-85
2022/06/09 03:09:04;;;;;;;71.57;32.70;;;14.80;99.90;;;;;;4940450;29;20168;-85
2022/06/09 03:11:33;;;;;;;85.97;47.47;;;14.70;99.90;;;;;;4939539;29;20172;-85
2022/06/09 03:13:58;;;;;;;81.33;40.97;;;14.70;99.90;;;;;;4936579;29;20419;-86
2022/06/09 03:16:24;;;;;;;85.43;46.73;;;14.80;99.90;;;;;;4919625;29;20947;-86
2022/06/09 03:18:50;;;;;;;93.90;68.87;;;14.70;99.90;;;;;;4923261;29;20224;-86
2022/06/09 03:21:15;;;;;;;93.17;72.20;;;14.80;99.90;;;;;;4942927;29;20206;-86
2022/06/09 03:23:41;;;;;;;100.40;80.37;;;14.70;99.90;;;;;;4943901;29;20176;-85
2022/06/09 03:26:07;;;;;;;91.10;66.33;;;14.70;99.90;;;;;;4943474;29;20208;-86
2022/06/09 03:28:34;;;;;;;92.27;71.40;;;14.70;99.90;;;;;;4943061;29;20412;-86
2022/06/09 03:30:59;;;;;;;86.20;63.97;;;14.70;99.90;;;;;;4944678;29;20192;-86
2022/06/09 03:33:26;;;;;;;103.40;92.40;;;14.70;99.90;;;;;;4926013;29;20500;-86
2022/06/09 03:35:51;;;;;;;104.60;93.90;;;14.60;99.90;;;;;;4924464;29;20559;-85
2022/06/09 03:38:17;;;;;;;103.37;91.73;;;14.50;99.90;;;;;;4924095;29;20489;-86
2022/06/09 03:40:43;;;;;;;117.30;105.97;;;14.50;99.90;;;;;;4924182;29;20228;-85
2022/06/09 03:43:09;;;;;;;109.57;98.73;;;14.60;99.90;;;;;;4940065;29;20447;-85
2022/06/09 03:45:35;;;;;;;134.23;121.73;;;14.60;99.90;;;;;;4939677;29;20192;-85
2022/06/09 03:48:01;;;;;;;121.63;109.60;;;14.60;99.90;;;;;;4941433;29;20225;-85
2022/06/09 03:50:31;;;;;;;111.37;99.53;;;14.60;99.90;;;;;;4924496;29;20413;-85
2022/06/09 03:52:58;;;;;;;102.87;92.70;;;14.60;99.90;;;;;;4943535;29;20896;-85
2022/06/09 03:55:26;;;;;;;110.77;99.93;;;14.60;99.90;;;;;;4943485;29;20488;-86
2022/06/09 03:57:52;;;;;;;108.27;97.30;;;14.60;99.90;;;;;;4926082;29;20412;-85
2022/06/09 04:00:26;;;;;;;102.90;92.27;;;14.60;99.90;;;;;;4925266;29;20454;-85
2022/06/09 04:02:51;;;;;;;91.77;80.00;;;14.60;99.90;;;;;;4924794;29;20257;-85
2022/06/09 04:05:21;;;;;;;96.23;86.13;;;14.60;99.90;;;;;;4940436;29;20453;-85
2022/06/09 04:07:46;;;;;;;92.53;82.27;;;14.60;99.90;;;;;;4924543;29;20177;-86
2022/06/09 04:10:19;;;;;;;107.37;96.23;;;14.70;99.90;;;;;;4925196;29;20428;-86
2022/06/09 04:12:45;;;;;;;92.80;81.13;;;14.70;99.90;;;;;;4925466;29;20707;-86
2022/06/09 04:15:19;;;;;;;89.40;74.60;;;14.60;99.90;;;;;;4924376;29;20413;-86
2022/06/09 04:17:46;;;;;;;90.70;76.27;;;14.70;99.90;;;;;;4924265;29;20417;-86
2022/06/09 04:20:14;;;;;;;86.57;66.53;;;14.70;99.90;;;;;;4941625;29;20963;-86
2022/06/09 04:22:40;;;;;;;88.03;67.97;;;14.80;99.90;;;;;;4942363;29;20408;-87
2022/06/09 04:25:13;;;;;;;88.00;73.37;;;14.80;99.90;;;;;;4925614;29;20796;-86
2022/06/09 04:27:39;;;;;;;91.63;81.00;;;14.80;99.90;;;;;;4925383;29;20173;-85
2022/06/09 04:30:06;;;;;;;92.77;66.83;;;14.70;99.90;;;;;;4943960;29;20776;-86
2022/06/09 04:32:32;;;;;;;86.57;64.17;;;14.70;99.90;;;;;;4942553;29;20790;-86
2022/06/09 04:34:57;;;;;;;87.50;62.50;;;14.80;99.90;;;;;;4942864;29;20410;-86
2022/06/09 04:37:59;;;;;;;87.73;56.13;;;14.80;99.90;;;;;;4925978;29;20173;-86
2022/06/09 04:40:10;;;;;;;80.33;43.07;;;14.90;99.90;;;;;;4943402;29;20328;-86
2022/06/09 04:42:36;;;;;;;96.10;65.53;;;14.90;99.90;;;;;;4926445;29;20416;-86
2022/06/09 04:45:05;;;;;;;86.40;50.47;;;14.90;99.90;;;;;;4943065;29;20408;-86
2022/06/09 04:47:31;;;;;;;89.33;55.07;;;14.90;99.90;;;;;;4926539;29;20208;-86
2022/06/09 04:49:57;;;;;;;85.63;52.97;;;14.90;99.90;;;;;;4943362;29;20515;-85
2022/06/09 04:52:23;;;;;;;87.60;50.77;;;15.00;99.90;;;;;;4927250;29;20436;-85
2022/06/09 04:54:48;;;;;;;84.87;50.87;;;15.00;99.90;;;;;;4943005;29;20165;-85
2022/06/09 04:57:14;;;;;;;84.63;47.70;;;15.00;99.90;;;;;;4925925;29;20199;-86
2022/06/09 04:59:40;;;;;;;82.90;43.17;;;15.00;99.90;;;;;;4925860;29;20201;-86
2022/06/09 05:02:05;;;;;;;80.90;38.13;;;15.10;99.90;;;;;;4926120;29;20177;-86
2022/06/09 05:04:37;;;;;;;85.87;45.57;;;15.10;99.90;;;;;;4926060;29;20173;-85
2022/06/09 05:07:03;;;;;;;76.80;33.50;;;15.20;99.90;;;;;;4926429;29;20189;-85
2022/06/09 05:09:29;;;;;;;75.50;31.13;;;15.20;99.90;;;;;;4926133;29;20413;-86
2022/06/09 05:11:55;;;;;;;79.13;38.27;;;15.30;99.90;;;;;;4943625;29;20182;-85
2022/06/09 05:14:20;;;;;;;78.70;35.03;;;15.30;99.90;;;;;;4943694;29;20456;-85
2022/06/09 05:16:46;;;;;;;77.87;40.20;;;15.40;99.90;;;;;;4925436;29;20253;-84
2022/06/09 05:19:12;;;;;;;81.80;41.60;;;15.50;99.90;;;;;;4925599;29;20237;-84
2022/06/09 05:21:37;;;;;;;80.33;32.80;;;15.60;99.90;;;;;;4942068;29;20198;-85
2022/06/09 05:24:03;;;;;;;78.27;23.23;;;15.60;99.90;;;;;;4924968;29;20169;-85
2022/06/09 05:26:32;;;;;;;80.83;20.13;;;15.70;99.90;;;;;;4942418;29;20198;-85
2022/06/09 05:28:58;;;;;;;76.07;19.67;;;15.80;99.90;;;;;;4944326;29;20414;-86
2022/06/09 05:31:24;;;;;;;78.60;23.70;;;15.90;99.90;;;;;;4944234;29;20414;-86
2022/06/09 05:33:50;;;;;;;71.10;21.23;;;15.80;99.90;;;;;;4926275;29;20421;-85
2022/06/09 05:36:16;;;;;;;72.40;24.07;;;15.90;99.90;;;;;;4926328;29;20475;-85
2022/06/09 05:47:05;;;;;;;74.87;25.67;;;16.10;99.90;;;;;;4911238;29;20439;-85
2022/06/09 05:49:31;;;;;;;74.33;20.63;;;16.10;99.90;;;;;;4924374;29;20411;-84
2022/06/09 05:52:00;;;;;;;73.20;23.50;;;16.10;99.90;;;;;;4925832;29;20174;-84
2022/06/09 05:54:27;;;;;;;73.47;22.87;;;16.20;99.90;;;;;;4925904;29;20191;-85
2022/06/09 05:56:54;;;;;;;75.47;24.00;;;16.20;99.90;;;;;;4944236;29;20826;-84
2022/06/09 05:59:20;;;;;;;75.67;24.47;;;16.30;99.90;;;;;;4927711;29;20478;-85
2022/06/09 06:01:45;;;;;;;76.20;22.63;;;16.30;99.90;;;;;;4944550;29;20805;-85
2022/06/09 06:04:11;;;;;;;77.07;28.20;;;16.40;99.90;;;;;;4927846;29;20934;-85
2022/06/09 06:06:37;;;;;;;77.33;28.50;;;16.50;99.90;;;;;;4927269;29;20197;-86
2022/06/09 06:09:06;;;;;;;74.03;27.43;;;16.50;99.90;;;;;;4943029;29;20410;-86
2022/06/09 06:11:34;;;;;;;77.33;25.10;;;16.50;99.90;;;;;;4927076;29;20415;-86
2022/06/09 06:14:00;;;;;;;75.77;26.33;;;16.40;99.90;;;;;;4943384;29;20410;-85
2022/06/09 06:16:25;;;;;;;73.60;28.70;;;16.40;99.90;;;;;;4925451;29;20443;-86
2022/06/09 06:18:51;;;;;;;78.43;26.20;;;16.50;99.90;;;;;;4943179;29;20436;-86
2022/06/09 06:21:17;;;;;;;74.67;25.73;;;16.50;99.90;;;;;;4925786;29;20175;-86
2022/06/09 06:23:43;;;;;;;77.17;23.93;;;16.40;99.90;;;;;;4943146;29;20167;-86
2022/06/09 06:26:13;;;;;;;72.93;25.27;;;16.50;99.90;;;;;;4941767;29;20705;-86
2022/06/09 06:28:39;;;;;;;80.93;30.60;;;16.40;99.90;;;;;;4925289;29;20410;-85
2022/06/09 06:31:05;;;;;;;75.70;28.63;;;16.50;99.90;;;;;;4942895;29;20405;-85
2022/06/09 06:33:30;;;;;;;77.83;27.37;;;16.50;99.90;;;;;;4942943;29;20200;-85
2022/06/09 06:35:56;;;;;;;82.23;28.57;;;16.40;99.90;;;;;;4925943;29;20424;-85
2022/06/09 06:38:22;;;;;;;80.70;26.37;;;16.40;99.90;;;;;;4941702;29;20171;-86
2022/06/09 06:40:49;;;;;;;76.00;25.20;;;16.50;99.90;;;;;;4942677;29;20199;-86
2022/06/09 06:43:21;;;;;;;74.60;26.37;;;16.60;99.90;;;;;;4925250;29;20787;-85
2022/06/09 06:45:46;;;;;;;75.67;23.57;;;16.70;99.90;;;;;;4943242;29;20419;-86
2022/06/09 06:48:12;;;;;;;76.43;19.53;;;16.80;99.90;;;;;;4924814;29;20440;-85
2022/06/09 06:50:38;;;;;;;75.57;18.33;;;16.80;99.90;;;;;;4941678;29;20171;-86
2022/06/09 06:53:05;;;;;;;76.00;25.63;;;16.80;99.90;;;;;;4924287;29;20177;-85
2022/06/09 06:55:31;;;;;;;73.27;23.77;;;16.70;99.90;;;;;;4940268;29;20722;-85
2022/06/09 06:57:56;;;;;;;76.23;21.67;;;16.70;99.90;;;;;;4940552;29;20409;-85
2022/06/09 07:00:24;;;;;;;73.73;20.57;;;16.90;99.90;;;;;;4923665;29;20452;-86
2022/06/09 07:02:50;;;;;;;72.17;19.03;;;17.00;99.90;;;;;;4923906;29;20171;-85
2022/06/09 07:05:17;;;;;;;78.77;20.40;;;17.10;99.90;;;;;;4923358;29;20778;-86
2022/06/09 07:07:43;;;;;;;72.00;17.27;;;17.10;99.90;;;;;;4924125;29;20777;-85
2022/06/09 07:10:10;;;;;;;80.33;16.97;;;17.10;99.90;;;;;;4940117;29;20392;-85
2022/06/09 07:12:38;;;;;;;69.60;14.60;;;17.10;99.90;;;;;;4923707;29;20589;-85
2022/06/09 07:15:04;;;;;;;75.63;13.27;;;17.20;99.90;;;;;;4922444;29;20417;-86
2022/06/09 07:17:30;;;;;;;73.30;15.00;;;17.20;99.90;;;;;;4935958;29;20410;-85
2022/06/09 07:19:55;;;;;;;70.10;14.97;;;17.10;99.90;;;;;;4918964;29;20534;-85
2022/06/09 07:22:21;;;;;;;80.80;16.53;;;17.20;99.90;;;;;;4903567;29;20551;-85
2022/06/09 07:24:48;;;;;;;73.60;17.20;;;17.20;99.90;;;;;;4937385;29;20424;-85
2022/06/09 07:27:14;;;;;;;73.33;18.33;;;17.10;99.90;;;;;;4922990;29;20191;-85
2022/06/09 07:29:40;;;;;;;76.20;18.17;;;17.20;99.90;;;;;;4940983;29;20408;-85
2022/06/09 07:32:08;;;;;;;73.77;18.33;;;17.10;99.90;;;;;;4941251;29;20509;-85
2022/06/09 07:34:35;;;;;;;72.60;15.80;;;17.10;99.90;;;;;;4924198;29;20416;-85
2022/06/09 07:37:02;;;;;;;69.63;11.67;;;17.20;99.90;;;;;;4925131;29;20451;-85
2022/06/09 07:39:28;;;;;;;71.50;10.80;;;17.10;99.90;;;;;;4923208;29;20961;-85
2022/06/09 07:41:53;;;;;;;73.50;8.90;;;17.20;99.90;;;;;;4922687;29;20419;-85
2022/06/09 07:44:19;;;;;;;74.87;8.40;;;17.30;99.90;;;;;;4922598;29;20617;-85
2022/06/09 07:46:45;;;;;;;69.27;7.40;;;17.30;99.90;;;;;;4922281;29;20189;-85
2022/06/09 07:49:11;;;;;;;69.83;7.43;;;17.30;99.90;;;;;;4940305;29;20179;-85
2022/06/09 07:51:38;;;;;;;66.90;6.33;;;17.40;99.90;;;;;;4940692;29;20408;-85
2022/06/09 07:54:04;;;;;;;70.23;6.83;;;17.40;99.90;;;;;;4922468;29;20419;-85
2022/06/09 07:56:32;;;;;;;70.13;7.03;;;17.50;99.90;;;;;;4939218;29;20463;-85
2022/06/09 07:59:00;;;;;;;73.67;7.60;;;17.50;99.90;;;;;;4939415;29;20412;-85
2022/06/09 08:01:25;;;;;;;67.40;7.03;;;17.40;99.90;;;;;;4939633;29;20405;-85
2022/06/09 08:03:51;;;;;;;73.10;9.40;;;17.40;99.90;;;;;;4939196;29;20408;-85
2022/06/09 08:06:17;;;;;;;74.00;8.40;;;17.40;99.90;;;;;;4922611;29;20567;-85
2022/06/09 08:08:43;;;;;;;70.47;7.70;;;17.40;99.90;;;;;;4939732;29;20419;-85
2022/06/09 08:11:09;;;;;;;67.90;8.23;;;17.40;99.90;;;;;;4922069;29;20176;-85
2022/06/09 08:13:35;;;;;;;69.80;7.50;;;17.40;99.90;;;;;;4921753;29;20173;-85
2022/06/09 08:16:03;;;;;;;73.80;7.50;;;17.30;99.90;;;;;;4922303;29;20428;-85
2022/06/09 08:18:29;;;;;;;71.87;7.07;;;17.40;99.90;;;;;;4939355;29;20543;-85
2022/06/09 08:20:55;;;;;;;70.17;7.60;;;17.40;99.90;;;;;;4938925;29;20929;-85
2022/06/09 08:23:24;;;;;;;70.70;8.40;;;17.50;99.90;;;;;;4938644;29;20412;-85
2022/06/09 08:25:54;;;;;;;70.87;8.83;;;17.50;99.90;;;;;;4921661;29;20443;-85
2022/06/09 08:28:21;;;;;;;70.67;8.17;;;17.60;99.90;;;;;;4921670;29;20426;-85
2022/06/09 08:30:51;;;;;;;72.13;8.10;;;17.60;99.90;;;;;;4939817;29;20443;-85
2022/06/09 08:33:17;;;;;;;69.70;8.30;;;17.50;99.90;;;;;;4923137;29;20481;-85
2022/06/09 08:35:46;;;;;;;70.90;9.00;;;17.60;99.90;;;;;;4922757;29;20460;-85
2022/06/09 08:38:12;;;;;;;71.73;10.00;;;17.80;99.90;;;;;;4940241;29;20433;-85
2022/06/09 08:40:50;;;;;;;81.53;8.80;;;18.00;99.90;;;;;;4940203;29;20511;-86
2022/06/09 08:43:24;;;;;;;73.37;7.73;;;18.10;99.90;;;;;;4922495;29;20820;-85
2022/06/09 08:45:53;;;;;;;72.27;10.10;;;18.00;99.90;;;;;;4922282;29;20451;-85
2022/06/09 08:48:22;;;;;;;70.53;8.00;;;18.10;99.90;;;;;;4921848;29;20412;-86
2022/06/09 08:51:01;;;;;;;69.27;6.93;;;18.20;99.90;;;;;;4938898;29;20786;-86
2022/06/09 08:53:39;;;;;;;66.57;5.83;;;18.10;99.90;;;;;;4939257;29;20440;-86
2022/06/09 08:56:23;;;;;;;69.07;5.53;;;18.10;99.90;;;;;;4922067;29;20487;-86
2022/06/09 08:58:56;;;;;;;67.80;6.30;;;18.00;99.90;;;;;;4938335;29;20401;-85
2022/06/09 09:01:43;;;;;;;67.70;6.43;;;17.90;99.90;;;;;;4922524;29;20451;-85
2022/06/09 09:04:20;;;;;;;69.87;5.70;;;17.90;99.90;;;;;;4938705;29;20425;-85
2022/06/09 09:07:07;;;;;;;72.70;6.80;;;17.90;99.90;;;;;;4938988;29;21006;-86
2022/06/09 09:09:35;;;;;;;72.10;6.70;;;18.10;99.90;;;;;;4938099;29;20409;-86
2022/06/09 09:12:23;;;;;;;75.23;7.17;;;18.10;99.90;;;;;;4920731;29;20432;-87
2022/06/09 09:15:02;;;;;;;70.87;5.87;;;18.10;99.90;;;;;;4938104;29;20396;-86
2022/06/09 09:17:47;;;;;;;69.40;6.30;;;18.00;99.90;;;;;;4938656;29;20389;-86
2022/06/09 09:20:22;;;;;;;67.40;7.50;;;18.00;99.90;;;;;;4937968;29;20429;-86
2022/06/09 09:23:13;;;;;;;70.53;6.43;;;18.00;99.90;;;;;;4939103;29;20404;-84
2022/06/09 09:25:45;;;;;;;71.50;8.17;;;18.20;99.90;;;;;;5001474;23;20498;-85
2022/06/09 09:28:20;;;;;;;69.97;7.00;;;18.40;99.90;;;;;;4926934;29;20800;-84
2022/06/09 09:30:51;;;;;;;71.07;6.40;;;18.70;99.90;;;;;;4943814;29;20408;-83
2022/06/09 09:33:18;;;;;;;73.70;6.20;;;18.80;99.90;;;;;;4944426;29;20464;-84
2022/06/09 09:35:48;;;;;;;72.07;8.07;;;19.00;99.90;;;;;;4943640;29;20424;-84
2022/06/09 09:38:17;;;;;;;69.03;7.93;;;19.20;99.90;;;;;;4944203;29;20719;-85
2022/06/09 09:40:46;;;;;;;68.70;6.80;;;19.40;99.90;;;;;;4943392;29;20444;-84
2022/06/09 09:43:21;;;;;;;70.23;7.07;;;19.70;99.90;;;;;;4943425;29;20464;-85
2022/06/09 09:45:50;;;;;;;75.90;6.07;;;19.80;99.90;;;;;;4944627;29;20423;-84
2022/06/09 09:48:19;;;;;;;67.90;4.57;;;19.90;99.90;;;;;;4942685;29;20405;-85
2022/06/09 09:51:02;;;;;;;70.03;4.63;;;20.00;99.90;;;;;;4926518;29;20430;-85
2022/06/09 09:53:56;;;;;;;67.17;4.73;;;19.80;99.50;;;;;;4943486;29;20412;-85
2022/06/09 09:56:30;;;;;;;70.57;4.63;;;19.90;99.90;;;;;;4940800;29;20441;-85
2022/06/09 09:58:59;;;;;;;74.93;5.70;;;19.80;99.60;;;;;;4926598;29;20446;-85
2022/06/09 10:08:35;;;;;;;73.40;5.00;;;19.70;99.90;;;;;;4926881;29;20420;-85
2022/06/09 10:09:54;;;;;;;71.93;4.97;;;20.20;96.50;;;;;;4943164;29;20502;-86
2022/06/09 10:12:23;;;;;;;70.30;5.43;;;20.40;98.00;;;;;;4943879;29;20468;-84
2022/06/09 10:15:09;;;;;;;67.87;4.97;;;20.40;99.60;;;;;;4943515;29;20405;-84
2022/06/09 10:17:57;;;;;;;66.70;4.00;;;20.40;92.20;;;;;;4942695;29;20385;-85
2022/06/09 10:20:37;;;;;;;72.70;4.40;;;20.30;88.90;;;;;;4942910;29;20797;-84
2022/06/09 10:23:17;;;;;;;70.30;5.70;;;20.20;91.20;;;;;;4943504;29;20406;-84
2022/06/09 10:26:08;;;;;;;69.57;6.10;;;20.10;93.00;;;;;;4925268;29;20477;-83
2022/06/09 10:28:47;;;;;;;70.60;4.53;;;19.90;91.10;;;;;;4926364;29;20402;-85
2022/06/09 10:31:48;;;;;;;66.63;3.73;;;19.80;94.80;;;;;;4926366;29;20425;-84
2022/06/09 10:34:45;;;;;;;66.77;3.80;;;20.00;99.90;;;;;;4926712;29;20475;-84
2022/06/09 10:37:31;;;;;;;74.20;4.97;;;20.50;99.80;;;;;;4926028;29;20450;-84
2022/06/09 10:40:01;;;;;;;70.43;4.87;;;21.00;97.70;;;;;;4926718;29;20796;-85
2022/06/09 10:42:37;;;;;;;72.83;5.40;;;21.20;84.50;;;;;;4943469;29;20407;-84
2022/06/09 10:45:23;;;;;;;70.57;5.80;;;21.40;65.90;;;;;;4943247;29;20803;-85
2022/06/09 10:57:32;;;;;;;69.90;4.60;;;22.10;41.60;;;;;;4943490;29;20432;-84
